sensor_id;sensor_type;location;lat;lon;timestamp;P1;durP1;ratioP1;P2;durP2;ratioP2
26303;SDS011;70693;48.680;8.890;2023-06-14T00:01:47;4.75;;;2.53;;
26303;SDS011;70693;48.680;8.890;2023-06-14T00:04:13;3.72;;;2.65;;
26303;SDS011;70693;48.680;8.890;2023-06-14T00:06:41;2.80;;;2.30;;
26303;SDS011;70693;48.680;8.890;2023-06-14T00:09:10;4.05;;;2.22;;
26303;SDS011;70693;48.680;8.890;2023-06-14T00:11:37;3.85;;;2.38;;
26303;SDS011;70693;48.680;8.890;2023-06-14T00:14:06;3.90;;;2.55;;
26303;SDS011;70693;48.680;8.890;2023-06-14T00:16:32;2.90;;;2.10;;
26303;SDS011;70693;48.680;8.890;2023-06-14T00:19:00;3.22;;;2.33;;
26303;SDS011;70693;48.680;8.890;2023-06-14T00:21:29;2.85;;;2.33;;
26303;SDS011;70693;48.680;8.890;2023-06-14T00:23:56;3.47;;;2.38;;
26303;SDS011;70693;48.680;8.890;2023-06-14T00:26:22;4.35;;;2.60;;
26303;SDS011;70693;48.680;8.890;2023-06-14T00:28:48;3.08;;;2.30;;
26303;SDS011;70693;48.680;8.890;2023-06-14T00:31:14;4.13;;;2.38;;
26303;SDS011;70693;48.680;8.890;2023-06-14T00:33:40;3.90;;;2.30;;
26303;SDS011;70693;48.680;8.890;2023-06-14T00:36:05;2.85;;;1.90;;
26303;SDS011;70693;48.680;8.890;2023-06-14T00:38:31;4.13;;;2.35;;
26303;SDS011;70693;48.680;8.890;2023-06-14T00:40:57;3.65;;;2.35;;
26303;SDS011;70693;48.680;8.890;2023-06-14T00:43:22;5.35;;;2.50;;
26303;SDS011;70693;48.680;8.890;2023-06-14T00:45:48;3.63;;;2.22;;
26303;SDS011;70693;48.680;8.890;2023-06-14T00:48:14;3.70;;;2.33;;
26303;SDS011;70693;48.680;8.890;2023-06-14T00:50:41;5.70;;;2.40;;
26303;SDS011;70693;48.680;8.890;2023-06-14T00:53:06;4.32;;;2.42;;
26303;SDS011;70693;48.680;8.890;2023-06-14T00:55:32;2.72;;;2.10;;
26303;SDS011;70693;48.680;8.890;2023-06-14T00:57:58;2.88;;;2.17;;
26303;SDS011;70693;48.680;8.890;2023-06-14T01:00:24;3.38;;;2.35;;
26303;SDS011;70693;48.680;8.890;2023-06-14T01:02:50;3.05;;;2.17;;
26303;SDS011;70693;48.680;8.890;2023-06-14T01:05:16;3.90;;;2.17;;
26303;SDS011;70693;48.680;8.890;2023-06-14T01:13:26;6.82;;;3.05;;
26303;SDS011;70693;48.680;8.890;2023-06-14T01:15:56;4.38;;;2.53;;
26303;SDS011;70693;48.680;8.890;2023-06-14T01:18:22;3.95;;;2.75;;
26303;SDS011;70693;48.680;8.890;2023-06-14T01:20:50;5.45;;;2.35;;
26303;SDS011;70693;48.680;8.890;2023-06-14T01:23:20;4.35;;;2.50;;
26303;SDS011;70693;48.680;8.890;2023-06-14T01:25:47;5.32;;;2.72;;
26303;SDS011;70693;48.680;8.890;2023-06-14T01:28:17;4.40;;;2.72;;
26303;SDS011;70693;48.680;8.890;2023-06-14T01:30:45;3.10;;;2.55;;
26303;SDS011;70693;48.680;8.890;2023-06-14T01:33:23;2.50;;;2.30;;
26303;SDS011;70693;48.680;8.890;2023-06-14T01:35:52;3.10;;;2.53;;
26303;SDS011;70693;48.680;8.890;2023-06-14T01:38:20;3.17;;;2.55;;
26303;SDS011;70693;48.680;8.890;2023-06-14T01:40:48;3.38;;;2.40;;
26303;SDS011;70693;48.680;8.890;2023-06-14T01:43:15;5.05;;;2.30;;
26303;SDS011;70693;48.680;8.890;2023-06-14T01:45:42;3.97;;;2.47;;
26303;SDS011;70693;48.680;8.890;2023-06-14T01:48:10;3.60;;;2.67;;
26303;SDS011;70693;48.680;8.890;2023-06-14T01:50:37;3.15;;;2.22;;
26303;SDS011;70693;48.680;8.890;2023-06-14T01:53:03;3.88;;;2.40;;
26303;SDS011;70693;48.680;8.890;2023-06-14T01:55:32;2.95;;;2.42;;
26303;SDS011;70693;48.680;8.890;2023-06-14T01:58:02;4.32;;;2.35;;
26303;SDS011;70693;48.680;8.890;2023-06-14T02:00:30;3.40;;;2.40;;
26303;SDS011;70693;48.680;8.890;2023-06-14T02:02:55;3.42;;;2.50;;
26303;SDS011;70693;48.680;8.890;2023-06-14T02:05:22;4.88;;;2.50;;
26303;SDS011;70693;48.680;8.890;2023-06-14T02:07:47;3.28;;;2.60;;
26303;SDS011;70693;48.680;8.890;2023-06-14T02:10:13;3.90;;;2.60;;
26303;SDS011;70693;48.680;8.890;2023-06-14T02:12:40;3.15;;;2.33;;
26303;SDS011;70693;48.680;8.890;2023-06-14T02:15:06;3.72;;;2.75;;
26303;SDS011;70693;48.680;8.890;2023-06-14T02:17:33;3.88;;;2.38;;
26303;SDS011;70693;48.680;8.890;2023-06-14T02:19:59;3.72;;;2.60;;
26303;SDS011;70693;48.680;8.890;2023-06-14T02:22:25;4.13;;;2.42;;
26303;SDS011;70693;48.680;8.890;2023-06-14T02:24:51;3.92;;;2.70;;
26303;SDS011;70693;48.680;8.890;2023-06-14T02:27:17;6.43;;;2.58;;
26303;SDS011;70693;48.680;8.890;2023-06-14T02:29:43;6.50;;;2.75;;
26303;SDS011;70693;48.680;8.890;2023-06-14T02:32:09;4.38;;;2.35;;
26303;SDS011;70693;48.680;8.890;2023-06-14T02:34:34;3.40;;;2.33;;
26303;SDS011;70693;48.680;8.890;2023-06-14T02:37:01;4.55;;;2.85;;
26303;SDS011;70693;48.680;8.890;2023-06-14T02:39:28;3.45;;;2.78;;
26303;SDS011;70693;48.680;8.890;2023-06-14T02:41:54;4.60;;;2.53;;
26303;SDS011;70693;48.680;8.890;2023-06-14T02:44:23;3.88;;;2.58;;
26303;SDS011;70693;48.680;8.890;2023-06-14T02:46:50;3.65;;;2.45;;
26303;SDS011;70693;48.680;8.890;2023-06-14T02:49:16;4.13;;;2.35;;
26303;SDS011;70693;48.680;8.890;2023-06-14T02:51:41;2.47;;;2.17;;
26303;SDS011;70693;48.680;8.890;2023-06-14T02:54:07;3.28;;;2.42;;
26303;SDS011;70693;48.680;8.890;2023-06-14T02:56:33;3.97;;;2.50;;
26303;SDS011;70693;48.680;8.890;2023-06-14T02:58:58;3.85;;;2.55;;
26303;SDS011;70693;48.680;8.890;2023-06-14T03:01:25;5.97;;;2.45;;
26303;SDS011;70693;48.680;8.890;2023-06-14T03:03:59;4.00;;;2.70;;
26303;SDS011;70693;48.680;8.890;2023-06-14T03:06:31;3.80;;;2.63;;
26303;SDS011;70693;48.680;8.890;2023-06-14T03:08:58;3.13;;;2.50;;
26303;SDS011;70693;48.680;8.890;2023-06-14T03:11:25;3.85;;;2.72;;
26303;SDS011;70693;48.680;8.890;2023-06-14T03:13:51;2.78;;;2.22;;
26303;SDS011;70693;48.680;8.890;2023-06-14T03:16:18;5.22;;;2.78;;
26303;SDS011;70693;48.680;8.890;2023-06-14T03:18:49;3.92;;;2.67;;
26303;SDS011;70693;48.680;8.890;2023-06-14T03:21:15;4.65;;;2.38;;
26303;SDS011;70693;48.680;8.890;2023-06-14T03:23:42;3.08;;;2.30;;
26303;SDS011;70693;48.680;8.890;2023-06-14T03:26:08;4.40;;;2.78;;
26303;SDS011;70693;48.680;8.890;2023-06-14T03:28:34;4.15;;;2.33;;
26303;SDS011;70693;48.680;8.890;2023-06-14T03:30:59;3.78;;;2.60;;
26303;SDS011;70693;48.680;8.890;2023-06-14T03:33:26;3.65;;;2.42;;
26303;SDS011;70693;48.680;8.890;2023-06-14T03:35:52;6.47;;;2.65;;
26303;SDS011;70693;48.680;8.890;2023-06-14T03:38:18;2.95;;;2.38;;
26303;SDS011;70693;48.680;8.890;2023-06-14T03:40:43;3.50;;;2.42;;
26303;SDS011;70693;48.680;8.890;2023-06-14T03:43:09;5.20;;;2.58;;
26303;SDS011;70693;48.680;8.890;2023-06-14T03:45:35;5.43;;;2.63;;
26303;SDS011;70693;48.680;8.890;2023-06-14T03:48:01;4.57;;;2.65;;
26303;SDS011;70693;48.680;8.890;2023-06-14T03:50:27;3.30;;;2.28;;
26303;SDS011;70693;48.680;8.890;2023-06-14T03:52:53;3.80;;;2.53;;
26303;SDS011;70693;48.680;8.890;2023-06-14T03:55:19;3.15;;;2.78;;
26303;SDS011;70693;48.680;8.890;2023-06-14T03:57:45;6.28;;;2.90;;
26303;SDS011;70693;48.680;8.890;2023-06-14T04:00:10;6.20;;;2.55;;
26303;SDS011;70693;48.680;8.890;2023-06-14T04:02:37;4.32;;;2.45;;
26303;SDS011;70693;48.680;8.890;2023-06-14T04:05:03;4.57;;;2.63;;
26303;SDS011;70693;48.680;8.890;2023-06-14T04:07:33;3.28;;;2.60;;
26303;SDS011;70693;48.680;8.890;2023-06-14T04:10:04;4.30;;;2.30;;
26303;SDS011;70693;48.680;8.890;2023-06-14T04:12:31;3.80;;;2.60;;
26303;SDS011;70693;48.680;8.890;2023-06-14T04:14:57;3.45;;;2.50;;
26303;SDS011;70693;48.680;8.890;2023-06-14T04:17:22;2.70;;;2.40;;
26303;SDS011;70693;48.680;8.890;2023-06-14T04:19:48;3.75;;;2.85;;
26303;SDS011;70693;48.680;8.890;2023-06-14T04:22:14;4.15;;;2.25;;
26303;SDS011;70693;48.680;8.890;2023-06-14T04:24:39;4.15;;;2.67;;
26303;SDS011;70693;48.680;8.890;2023-06-14T04:27:07;4.78;;;2.58;;
26303;SDS011;70693;48.680;8.890;2023-06-14T04:29:33;2.97;;;2.45;;
26303;SDS011;70693;48.680;8.890;2023-06-14T04:31:58;3.53;;;2.35;;
26303;SDS011;70693;48.680;8.890;2023-06-14T04:34:27;2.97;;;2.33;;
26303;SDS011;70693;48.680;8.890;2023-06-14T04:36:57;5.90;;;3.08;;
26303;SDS011;70693;48.680;8.890;2023-06-14T04:39:24;4.13;;;2.10;;
26303;SDS011;70693;48.680;8.890;2023-06-14T04:41:51;8.15;;;2.95;;
26303;SDS011;70693;48.680;8.890;2023-06-14T04:44:22;3.58;;;2.78;;
26303;SDS011;70693;48.680;8.890;2023-06-14T04:46:55;7.82;;;2.92;;
26303;SDS011;70693;48.680;8.890;2023-06-14T04:49:23;8.57;;;3.10;;
26303;SDS011;70693;48.680;8.890;2023-06-14T04:51:49;4.65;;;2.80;;
26303;SDS011;70693;48.680;8.890;2023-06-14T04:54:24;9.15;;;3.42;;
26303;SDS011;70693;48.680;8.890;2023-06-14T04:56:52;5.45;;;2.90;;
26303;SDS011;70693;48.680;8.890;2023-06-14T04:59:20;4.78;;;3.10;;
26303;SDS011;70693;48.680;8.890;2023-06-14T05:01:48;6.53;;;2.92;;
26303;SDS011;70693;48.680;8.890;2023-06-14T05:04:14;5.25;;;3.03;;
26303;SDS011;70693;48.680;8.890;2023-06-14T05:06:41;4.10;;;2.80;;
26303;SDS011;70693;48.680;8.890;2023-06-14T05:09:09;3.33;;;2.53;;
26303;SDS011;70693;48.680;8.890;2023-06-14T05:11:39;9.25;;;2.92;;
26303;SDS011;70693;48.680;8.890;2023-06-14T05:14:04;3.50;;;2.58;;
26303;SDS011;70693;48.680;8.890;2023-06-14T05:16:31;5.63;;;2.85;;
26303;SDS011;70693;48.680;8.890;2023-06-14T05:18:57;7.47;;;3.15;;
26303;SDS011;70693;48.680;8.890;2023-06-14T05:21:23;5.57;;;2.92;;
26303;SDS011;70693;48.680;8.890;2023-06-14T05:23:49;4.25;;;2.97;;
26303;SDS011;70693;48.680;8.890;2023-06-14T05:26:16;4.43;;;2.90;;
26303;SDS011;70693;48.680;8.890;2023-06-14T05:28:41;5.70;;;2.95;;
26303;SDS011;70693;48.680;8.890;2023-06-14T05:31:07;5.32;;;2.97;;
26303;SDS011;70693;48.680;8.890;2023-06-14T05:33:33;7.95;;;3.30;;
26303;SDS011;70693;48.680;8.890;2023-06-14T05:35:58;6.50;;;3.38;;
26303;SDS011;70693;48.680;8.890;2023-06-14T05:38:24;5.50;;;3.25;;
26303;SDS011;70693;48.680;8.890;2023-06-14T05:40:50;11.73;;;3.30;;
26303;SDS011;70693;48.680;8.890;2023-06-14T05:43:16;6.60;;;3.25;;
26303;SDS011;70693;48.680;8.890;2023-06-14T05:45:41;17.90;;;3.92;;
26303;SDS011;70693;48.680;8.890;2023-06-14T05:48:07;8.80;;;3.33;;
26303;SDS011;70693;48.680;8.890;2023-06-14T05:50:33;7.70;;;3.35;;
26303;SDS011;70693;48.680;8.890;2023-06-14T05:52:58;9.10;;;3.50;;
26303;SDS011;70693;48.680;8.890;2023-06-14T05:55:24;9.38;;;3.63;;
26303;SDS011;70693;48.680;8.890;2023-06-14T05:57:50;11.80;;;3.47;;
26303;SDS011;70693;48.680;8.890;2023-06-14T06:00:17;9.63;;;3.55;;
26303;SDS011;70693;48.680;8.890;2023-06-14T06:02:43;5.25;;;3.60;;
26303;SDS011;70693;48.680;8.890;2023-06-14T06:05:12;6.68;;;3.10;;
26303;SDS011;70693;48.680;8.890;2023-06-14T06:07:38;32.47;;;5.20;;
26303;SDS011;70693;48.680;8.890;2023-06-14T06:10:07;17.70;;;3.80;;
26303;SDS011;70693;48.680;8.890;2023-06-14T06:12:33;27.48;;;4.70;;
26303;SDS011;70693;48.680;8.890;2023-06-14T06:14:59;10.15;;;4.03;;
26303;SDS011;70693;48.680;8.890;2023-06-14T06:17:25;9.73;;;4.00;;
26303;SDS011;70693;48.680;8.890;2023-06-14T06:19:51;7.35;;;3.53;;
26303;SDS011;70693;48.680;8.890;2023-06-14T06:22:16;6.38;;;3.15;;
26303;SDS011;70693;48.680;8.890;2023-06-14T06:24:42;9.02;;;3.15;;
26303;SDS011;70693;48.680;8.890;2023-06-14T06:27:08;24.55;;;3.92;;
26303;SDS011;70693;48.680;8.890;2023-06-14T06:29:34;8.73;;;3.53;;
26303;SDS011;70693;48.680;8.890;2023-06-14T06:32:00;11.07;;;3.30;;
26303;SDS011;70693;48.680;8.890;2023-06-14T06:34:27;7.93;;;3.67;;
26303;SDS011;70693;48.680;8.890;2023-06-14T06:36:52;10.25;;;3.83;;
26303;SDS011;70693;48.680;8.890;2023-06-14T06:39:18;7.97;;;3.08;;
26303;SDS011;70693;48.680;8.890;2023-06-14T06:41:44;7.88;;;3.30;;
26303;SDS011;70693;48.680;8.890;2023-06-14T06:44:09;8.38;;;3.08;;
26303;SDS011;70693;48.680;8.890;2023-06-14T06:46:35;11.57;;;3.45;;
26303;SDS011;70693;48.680;8.890;2023-06-14T06:49:05;9.02;;;3.40;;
26303;SDS011;70693;48.680;8.890;2023-06-14T06:51:31;7.13;;;3.13;;
26303;SDS011;70693;48.680;8.890;2023-06-14T06:53:56;8.05;;;2.95;;
26303;SDS011;70693;48.680;8.890;2023-06-14T06:56:23;9.65;;;3.20;;
26303;SDS011;70693;48.680;8.890;2023-06-14T06:58:49;5.63;;;2.83;;
26303;SDS011;70693;48.680;8.890;2023-06-14T07:01:16;5.80;;;3.03;;
26303;SDS011;70693;48.680;8.890;2023-06-14T07:03:42;3.83;;;3.00;;
26303;SDS011;70693;48.680;8.890;2023-06-14T07:06:08;6.28;;;3.08;;
26303;SDS011;70693;48.680;8.890;2023-06-14T07:08:33;9.40;;;3.30;;
26303;SDS011;70693;48.680;8.890;2023-06-14T07:11:00;5.03;;;3.13;;
26303;SDS011;70693;48.680;8.890;2023-06-14T07:13:27;7.95;;;3.20;;
26303;SDS011;70693;48.680;8.890;2023-06-14T07:15:57;5.45;;;2.80;;
26303;SDS011;70693;48.680;8.890;2023-06-14T07:18:25;4.78;;;2.88;;
26303;SDS011;70693;48.680;8.890;2023-06-14T07:20:51;6.10;;;3.28;;
26303;SDS011;70693;48.680;8.890;2023-06-14T07:23:18;4.93;;;3.15;;
26303;SDS011;70693;48.680;8.890;2023-06-14T07:25:45;8.60;;;3.13;;
26303;SDS011;70693;48.680;8.890;2023-06-14T07:28:10;7.70;;;2.80;;
26303;SDS011;70693;48.680;8.890;2023-06-14T07:30:36;10.63;;;3.20;;
26303;SDS011;70693;48.680;8.890;2023-06-14T07:33:01;8.52;;;3.05;;
26303;SDS011;70693;48.680;8.890;2023-06-14T07:35:27;5.35;;;2.88;;
26303;SDS011;70693;48.680;8.890;2023-06-14T07:37:53;7.13;;;3.17;;
26303;SDS011;70693;48.680;8.890;2023-06-14T07:40:19;8.30;;;3.00;;
26303;SDS011;70693;48.680;8.890;2023-06-14T07:42:45;3.55;;;2.63;;
26303;SDS011;70693;48.680;8.890;2023-06-14T07:45:12;3.75;;;2.85;;
26303;SDS011;70693;48.680;8.890;2023-06-14T07:47:39;6.97;;;2.92;;
26303;SDS011;70693;48.680;8.890;2023-06-14T07:50:04;6.63;;;2.70;;
26303;SDS011;70693;48.680;8.890;2023-06-14T07:52:30;4.85;;;3.10;;
26303;SDS011;70693;48.680;8.890;2023-06-14T07:54:56;3.80;;;2.70;;
26303;SDS011;70693;48.680;8.890;2023-06-14T07:57:22;4.35;;;3.05;;
26303;SDS011;70693;48.680;8.890;2023-06-14T07:59:47;4.40;;;2.90;;
26303;SDS011;70693;48.680;8.890;2023-06-14T08:02:13;4.78;;;3.30;;
26303;SDS011;70693;48.680;8.890;2023-06-14T08:04:39;3.75;;;2.47;;
26303;SDS011;70693;48.680;8.890;2023-06-14T08:07:05;4.80;;;2.85;;
26303;SDS011;70693;48.680;8.890;2023-06-14T08:09:32;4.85;;;2.90;;
26303;SDS011;70693;48.680;8.890;2023-06-14T08:11:57;4.85;;;2.90;;
26303;SDS011;70693;48.680;8.890;2023-06-14T08:14:23;4.50;;;2.83;;
26303;SDS011;70693;48.680;8.890;2023-06-14T08:16:48;5.22;;;2.60;;
26303;SDS011;70693;48.680;8.890;2023-06-14T08:19:14;5.15;;;2.63;;
26303;SDS011;70693;48.680;8.890;2023-06-14T08:21:41;5.47;;;2.80;;
26303;SDS011;70693;48.680;8.890;2023-06-14T08:24:08;4.13;;;2.53;;
26303;SDS011;70693;48.680;8.890;2023-06-14T08:26:37;3.08;;;2.58;;
26303;SDS011;70693;48.680;8.890;2023-06-14T08:29:03;4.90;;;2.83;;
26303;SDS011;70693;48.680;8.890;2023-06-14T08:31:29;6.35;;;2.70;;
26303;SDS011;70693;48.680;8.890;2023-06-14T08:33:56;6.05;;;2.92;;
26303;SDS011;70693;48.680;8.890;2023-06-14T08:36:22;4.75;;;2.42;;
26303;SDS011;70693;48.680;8.890;2023-06-14T08:38:48;4.18;;;3.00;;
26303;SDS011;70693;48.680;8.890;2023-06-14T08:41:13;4.55;;;2.53;;
26303;SDS011;70693;48.680;8.890;2023-06-14T08:43:45;5.85;;;2.72;;
26303;SDS011;70693;48.680;8.890;2023-06-14T08:46:11;3.60;;;2.92;;
26303;SDS011;70693;48.680;8.890;2023-06-14T08:48:41;4.90;;;2.65;;
26303;SDS011;70693;48.680;8.890;2023-06-14T08:51:08;4.03;;;2.78;;
26303;SDS011;70693;48.680;8.890;2023-06-14T08:53:35;4.18;;;2.63;;
26303;SDS011;70693;48.680;8.890;2023-06-14T08:56:07;3.67;;;2.42;;
26303;SDS011;70693;48.680;8.890;2023-06-14T08:58:39;3.50;;;2.60;;
26303;SDS011;70693;48.680;8.890;2023-06-14T09:01:10;2.80;;;2.35;;
26303;SDS011;70693;48.680;8.890;2023-06-14T09:03:41;3.40;;;2.50;;
26303;SDS011;70693;48.680;8.890;2023-06-14T09:06:07;5.28;;;2.40;;
26303;SDS011;70693;48.680;8.890;2023-06-14T09:08:38;3.40;;;2.70;;
26303;SDS011;70693;48.680;8.890;2023-06-14T09:11:08;4.70;;;2.92;;
26303;SDS011;70693;48.680;8.890;2023-06-14T09:13:35;3.42;;;2.50;;
26303;SDS011;70693;48.680;8.890;2023-06-14T09:16:00;5.38;;;2.47;;
26303;SDS011;70693;48.680;8.890;2023-06-14T09:18:36;3.25;;;2.63;;
26303;SDS011;70693;48.680;8.890;2023-06-14T09:21:03;3.92;;;2.97;;
26303;SDS011;70693;48.680;8.890;2023-06-14T09:23:30;2.75;;;2.38;;
26303;SDS011;70693;48.680;8.890;2023-06-14T09:26:04;3.90;;;2.60;;
26303;SDS011;70693;48.680;8.890;2023-06-14T09:28:35;4.20;;;2.70;;
26303;SDS011;70693;48.680;8.890;2023-06-14T09:31:01;3.15;;;2.45;;
26303;SDS011;70693;48.680;8.890;2023-06-14T09:33:27;4.10;;;2.90;;
26303;SDS011;70693;48.680;8.890;2023-06-14T09:35:56;3.90;;;2.53;;
26303;SDS011;70693;48.680;8.890;2023-06-14T09:38:21;4.85;;;2.53;;
26303;SDS011;70693;48.680;8.890;2023-06-14T09:40:47;3.00;;;2.38;;
26303;SDS011;70693;48.680;8.890;2023-06-14T09:43:14;4.38;;;2.63;;
26303;SDS011;70693;48.680;8.890;2023-06-14T09:45:40;4.45;;;2.70;;
26303;SDS011;70693;48.680;8.890;2023-06-14T09:48:06;3.20;;;2.53;;
26303;SDS011;70693;48.680;8.890;2023-06-14T09:50:33;3.17;;;2.45;;
26303;SDS011;70693;48.680;8.890;2023-06-14T09:53:03;3.75;;;2.40;;
26303;SDS011;70693;48.680;8.890;2023-06-14T09:55:31;4.13;;;2.40;;
26303;SDS011;70693;48.680;8.890;2023-06-14T09:58:00;4.18;;;2.40;;
26303;SDS011;70693;48.680;8.890;2023-06-14T10:00:31;2.88;;;2.40;;
26303;SDS011;70693;48.680;8.890;2023-06-14T10:03:00;2.83;;;2.40;;
26303;SDS011;70693;48.680;8.890;2023-06-14T10:05:31;5.28;;;2.70;;
26303;SDS011;70693;48.680;8.890;2023-06-14T10:08:04;3.63;;;2.55;;
26303;SDS011;70693;48.680;8.890;2023-06-14T10:10:34;5.38;;;2.67;;
26303;SDS011;70693;48.680;8.890;2023-06-14T10:12:59;2.95;;;2.50;;
26303;SDS011;70693;48.680;8.890;2023-06-14T10:18:02;2.85;;;2.55;;
26303;SDS011;70693;48.680;8.890;2023-06-14T10:24:04;3.50;;;2.10;;
26303;SDS011;70693;48.680;8.890;2023-06-14T10:26:32;4.85;;;2.28;;
26303;SDS011;70693;48.680;8.890;2023-06-14T10:28:59;3.28;;;2.45;;
26303;SDS011;70693;48.680;8.890;2023-06-14T10:31:40;4.45;;;2.45;;
26303;SDS011;70693;48.680;8.890;2023-06-14T10:34:07;4.70;;;2.20;;
26303;SDS011;70693;48.680;8.890;2023-06-14T10:36:33;4.28;;;2.25;;
26303;SDS011;70693;48.680;8.890;2023-06-14T10:41:49;3.22;;;2.20;;
26303;SDS011;70693;48.680;8.890;2023-06-14T10:49:16;2.78;;;2.30;;
26303;SDS011;70693;48.680;8.890;2023-06-14T10:51:45;3.70;;;2.40;;
26303;SDS011;70693;48.680;8.890;2023-06-14T10:54:20;4.93;;;2.38;;
26303;SDS011;70693;48.680;8.890;2023-06-14T10:56:47;4.28;;;2.28;;
26303;SDS011;70693;48.680;8.890;2023-06-14T10:59:17;2.53;;;2.22;;
26303;SDS011;70693;48.680;8.890;2023-06-14T11:01:57;2.78;;;2.30;;
26303;SDS011;70693;48.680;8.890;2023-06-14T11:04:49;3.00;;;2.15;;
26303;SDS011;70693;48.680;8.890;2023-06-14T11:10:05;2.88;;;2.38;;
26303;SDS011;70693;48.680;8.890;2023-06-14T11:12:55;3.15;;;2.35;;
26303;SDS011;70693;48.680;8.890;2023-06-14T11:15:27;2.60;;;2.30;;
26303;SDS011;70693;48.680;8.890;2023-06-14T11:17:53;3.10;;;2.40;;
26303;SDS011;70693;48.680;8.890;2023-06-14T11:20:23;3.70;;;2.55;;
26303;SDS011;70693;48.680;8.890;2023-06-14T11:22:51;4.57;;;2.17;;
26303;SDS011;70693;48.680;8.890;2023-06-14T11:25:17;3.53;;;2.30;;
26303;SDS011;70693;48.680;8.890;2023-06-14T11:27:43;3.00;;;2.28;;
26303;SDS011;70693;48.680;8.890;2023-06-14T11:30:09;3.97;;;2.35;;
26303;SDS011;70693;48.680;8.890;2023-06-14T11:32:36;7.25;;;2.42;;
26303;SDS011;70693;48.680;8.890;2023-06-14T11:35:03;6.45;;;2.58;;
26303;SDS011;70693;48.680;8.890;2023-06-14T11:37:30;4.28;;;2.83;;
26303;SDS011;70693;48.680;8.890;2023-06-14T11:39:59;6.68;;;3.00;;
26303;SDS011;70693;48.680;8.890;2023-06-14T11:42:29;4.53;;;2.85;;
26303;SDS011;70693;48.680;8.890;2023-06-14T11:44:55;5.05;;;2.47;;
26303;SDS011;70693;48.680;8.890;2023-06-14T11:47:21;5.35;;;2.70;;
26303;SDS011;70693;48.680;8.890;2023-06-14T11:49:48;5.63;;;2.92;;
26303;SDS011;70693;48.680;8.890;2023-06-14T11:52:14;3.17;;;2.42;;
26303;SDS011;70693;48.680;8.890;2023-06-14T11:54:40;3.35;;;2.58;;
26303;SDS011;70693;48.680;8.890;2023-06-14T11:57:09;4.93;;;2.67;;
26303;SDS011;70693;48.680;8.890;2023-06-14T11:59:39;3.00;;;2.70;;
26303;SDS011;70693;48.680;8.890;2023-06-14T12:02:05;2.80;;;2.47;;
26303;SDS011;70693;48.680;8.890;2023-06-14T12:04:32;3.22;;;2.60;;
26303;SDS011;70693;48.680;8.890;2023-06-14T12:07:08;3.90;;;2.40;;
26303;SDS011;70693;48.680;8.890;2023-06-14T12:10:03;3.38;;;2.55;;
26303;SDS011;70693;48.680;8.890;2023-06-14T12:12:34;5.70;;;1.98;;
26303;SDS011;70693;48.680;8.890;2023-06-14T12:15:07;4.38;;;2.67;;
26303;SDS011;70693;48.680;8.890;2023-06-14T12:17:34;3.90;;;2.40;;
26303;SDS011;70693;48.680;8.890;2023-06-14T12:20:13;3.35;;;2.42;;
26303;SDS011;70693;48.680;8.890;2023-06-14T12:22:51;6.03;;;2.78;;
26303;SDS011;70693;48.680;8.890;2023-06-14T12:25:31;2.80;;;2.35;;
26303;SDS011;70693;48.680;8.890;2023-06-14T12:27:59;4.93;;;2.60;;
26303;SDS011;70693;48.680;8.890;2023-06-14T12:30:33;3.63;;;2.50;;
26303;SDS011;70693;48.680;8.890;2023-06-14T12:33:00;3.40;;;2.35;;
26303;SDS011;70693;48.680;8.890;2023-06-14T12:35:26;2.85;;;2.53;;
26303;SDS011;70693;48.680;8.890;2023-06-14T12:37:52;4.57;;;2.63;;
26303;SDS011;70693;48.680;8.890;2023-06-14T12:40:18;2.80;;;2.35;;
26303;SDS011;70693;48.680;8.890;2023-06-14T12:42:44;5.47;;;2.80;;
26303;SDS011;70693;48.680;8.890;2023-06-14T12:45:12;4.03;;;2.60;;
26303;SDS011;70693;48.680;8.890;2023-06-14T12:47:38;4.40;;;2.72;;
26303;SDS011;70693;48.680;8.890;2023-06-14T12:50:04;5.22;;;2.60;;
26303;SDS011;70693;48.680;8.890;2023-06-14T12:52:30;3.88;;;2.55;;
26303;SDS011;70693;48.680;8.890;2023-06-14T12:54:56;3.03;;;2.10;;
26303;SDS011;70693;48.680;8.890;2023-06-14T12:57:22;4.20;;;2.63;;
26303;SDS011;70693;48.680;8.890;2023-06-14T12:59:48;3.22;;;2.33;;
26303;SDS011;70693;48.680;8.890;2023-06-14T13:02:15;5.13;;;2.45;;
26303;SDS011;70693;48.680;8.890;2023-06-14T13:04:42;4.05;;;2.72;;
26303;SDS011;70693;48.680;8.890;2023-06-14T13:07:08;2.92;;;2.33;;
26303;SDS011;70693;48.680;8.890;2023-06-14T13:09:35;3.35;;;2.55;;
26303;SDS011;70693;48.680;8.890;2023-06-14T13:12:01;4.03;;;2.53;;
26303;SDS011;70693;48.680;8.890;2023-06-14T13:14:27;3.58;;;2.42;;
26303;SDS011;70693;48.680;8.890;2023-06-14T13:16:53;4.68;;;2.58;;
26303;SDS011;70693;48.680;8.890;2023-06-14T13:19:18;4.88;;;2.50;;
26303;SDS011;70693;48.680;8.890;2023-06-14T13:21:44;2.72;;;2.25;;
26303;SDS011;70693;48.680;8.890;2023-06-14T13:24:10;3.80;;;2.30;;
26303;SDS011;70693;48.680;8.890;2023-06-14T13:26:36;2.85;;;2.17;;
26303;SDS011;70693;48.680;8.890;2023-06-14T13:29:01;3.17;;;2.22;;
26303;SDS011;70693;48.680;8.890;2023-06-14T13:31:27;2.70;;;2.20;;
26303;SDS011;70693;48.680;8.890;2023-06-14T13:33:52;3.05;;;2.30;;
26303;SDS011;70693;48.680;8.890;2023-06-14T13:36:18;3.55;;;2.20;;
26303;SDS011;70693;48.680;8.890;2023-06-14T13:38:44;2.55;;;2.35;;
26303;SDS011;70693;48.680;8.890;2023-06-14T13:41:09;3.58;;;2.20;;
26303;SDS011;70693;48.680;8.890;2023-06-14T13:43:35;4.03;;;2.60;;
26303;SDS011;70693;48.680;8.890;2023-06-14T13:46:01;2.90;;;2.10;;
26303;SDS011;70693;48.680;8.890;2023-06-14T13:48:26;3.72;;;2.38;;
26303;SDS011;70693;48.680;8.890;2023-06-14T13:50:52;3.90;;;2.50;;
26303;SDS011;70693;48.680;8.890;2023-06-14T13:53:17;2.60;;;2.10;;
26303;SDS011;70693;48.680;8.890;2023-06-14T13:55:43;2.05;;;1.80;;
26303;SDS011;70693;48.680;8.890;2023-06-14T13:58:09;3.20;;;2.38;;
26303;SDS011;70693;48.680;8.890;2023-06-14T14:00:35;2.22;;;1.88;;
26303;SDS011;70693;48.680;8.890;2023-06-14T14:03:05;3.25;;;2.00;;
26303;SDS011;70693;48.680;8.890;2023-06-14T14:05:31;3.40;;;2.10;;
26303;SDS011;70693;48.680;8.890;2023-06-14T14:07:57;2.75;;;2.10;;
26303;SDS011;70693;48.680;8.890;2023-06-14T14:10:24;3.70;;;2.25;;
26303;SDS011;70693;48.680;8.890;2023-06-14T14:12:50;2.67;;;2.08;;
26303;SDS011;70693;48.680;8.890;2023-06-14T14:15:16;3.65;;;2.17;;
26303;SDS011;70693;48.680;8.890;2023-06-14T14:17:42;2.00;;;1.80;;
26303;SDS011;70693;48.680;8.890;2023-06-14T14:20:08;4.70;;;2.42;;
26303;SDS011;70693;48.680;8.890;2023-06-14T14:22:34;3.60;;;2.20;;
26303;SDS011;70693;48.680;8.890;2023-06-14T14:24:59;2.40;;;2.10;;
26303;SDS011;70693;48.680;8.890;2023-06-14T14:27:25;2.47;;;1.75;;
26303;SDS011;70693;48.680;8.890;2023-06-14T14:29:51;3.95;;;2.10;;
26303;SDS011;70693;48.680;8.890;2023-06-14T14:32:16;4.13;;;2.55;;
26303;SDS011;70693;48.680;8.890;2023-06-14T14:34:42;3.08;;;2.00;;
26303;SDS011;70693;48.680;8.890;2023-06-14T14:37:07;2.83;;;2.17;;
26303;SDS011;70693;48.680;8.890;2023-06-14T14:39:33;3.85;;;2.20;;
26303;SDS011;70693;48.680;8.890;2023-06-14T14:41:59;3.30;;;2.17;;
26303;SDS011;70693;48.680;8.890;2023-06-14T14:44:25;2.78;;;2.10;;
26303;SDS011;70693;48.680;8.890;2023-06-14T14:46:50;2.53;;;1.70;;
26303;SDS011;70693;48.680;8.890;2023-06-14T14:49:16;3.00;;;2.35;;
26303;SDS011;70693;48.680;8.890;2023-06-14T14:51:42;2.45;;;2.00;;
26303;SDS011;70693;48.680;8.890;2023-06-14T14:54:07;2.67;;;2.20;;
26303;SDS011;70693;48.680;8.890;2023-06-14T14:56:33;4.57;;;2.60;;
26303;SDS011;70693;48.680;8.890;2023-06-14T14:59:00;3.70;;;2.20;;
26303;SDS011;70693;48.680;8.890;2023-06-14T15:01:26;2.50;;;2.03;;
26303;SDS011;70693;48.680;8.890;2023-06-14T15:03:51;3.30;;;2.15;;
26303;SDS011;70693;48.680;8.890;2023-06-14T15:06:17;2.72;;;2.13;;
26303;SDS011;70693;48.680;8.890;2023-06-14T15:08:43;2.83;;;2.28;;
26303;SDS011;70693;48.680;8.890;2023-06-14T15:11:09;3.38;;;2.25;;